createdAt,value
2017-12-16T00:01:43.375Z,50.07
2017-12-16T00:04:15.856Z,79.83
2017-12-16T00:06:48.359Z,68.53
2017-12-16T00:09:20.843Z,81.33
2017-12-16T00:11:53.339Z,57.33
2017-12-16T00:14:25.912Z,93.43
2017-12-16T00:16:58.419Z,37.70
2017-12-16T00:19:30.909Z,80.50
2017-12-16T00:22:03.431Z,77.20
2017-12-16T00:24:35.920Z,47.33
2017-12-16T00:27:08.423Z,67.20
2017-12-16T00:29:40.909Z,83.30
2017-12-16T00:32:13.416Z,68.00
2017-12-16T00:34:45.891Z,73.83
2017-12-16T00:37:18.395Z,49.33
2017-12-16T00:39:50.888Z,39.93
2017-12-16T00:42:23.385Z,42.10
2017-12-16T00:44:55.855Z,83.50
2017-12-16T00:47:28.360Z,48.73
2017-12-16T00:50:00.855Z,55.23
2017-12-16T00:52:33.365Z,71.53
2017-12-16T00:55:05.853Z,94.37
2017-12-16T00:57:38.372Z,82.80
2017-12-16T01:00:10.870Z,78.67
2017-12-16T01:02:43.368Z,47.10
2017-12-16T01:05:15.854Z,47.30
2017-12-16T01:07:48.356Z,69.43
2017-12-16T01:10:20.868Z,40.43
2017-12-16T01:12:53.372Z,58.87
2017-12-16T01:15:25.872Z,49.33
2017-12-16T01:17:58.381Z,60.63
2017-12-16T01:20:30.859Z,44.43
2017-12-16T01:23:03.356Z,51.13
2017-12-16T01:25:35.827Z,45.03
2017-12-16T01:28:08.326Z,63.70
2017-12-16T01:30:41.817Z,54.10
2017-12-16T01:33:14.307Z,67.33
2017-12-16T01:35:58.600Z,69.67
2017-12-16T01:38:37.617Z,58.50
2017-12-16T01:41:10.095Z,74.40
2017-12-16T01:43:42.592Z,53.20
2017-12-16T01:46:15.076Z,70.97
2017-12-16T01:48:47.574Z,74.30
2017-12-16T01:51:20.056Z,73.60
2017-12-16T01:53:52.560Z,75.10
2017-12-16T01:56:25.087Z,73.53
2017-12-16T01:58:57.586Z,75.83
2017-12-16T02:01:30.067Z,51.90
2017-12-16T02:04:02.583Z,61.73
2017-12-16T02:06:35.064Z,40.03
2017-12-16T02:09:09.750Z,46.63
2017-12-16T02:11:42.282Z,92.30
2017-12-16T02:14:14.784Z,86.97
2017-12-16T02:16:47.276Z,83.10
2017-12-16T02:19:19.788Z,56.03
2017-12-16T02:21:52.275Z,52.43
2017-12-16T02:24:24.788Z,47.83
2017-12-16T02:26:57.371Z,84.70
2017-12-16T02:29:29.885Z,56.60
2017-12-16T02:32:02.370Z,141.23
2017-12-16T02:34:34.894Z,85.67
2017-12-16T02:37:10.231Z,72.93
2017-12-16T02:39:42.732Z,69.67
2017-12-16T02:42:15.238Z,73.73
2017-12-16T02:44:47.746Z,88.83
2017-12-16T02:47:20.319Z,267.60
2017-12-16T02:49:52.831Z,246.47
2017-12-16T02:52:25.330Z,276.53
2017-12-16T02:54:57.844Z,288.73
2017-12-16T02:57:30.334Z,370.33
2017-12-16T03:00:02.860Z,514.17
2017-12-16T03:02:35.358Z,261.07
2017-12-16T03:05:10.614Z,96.33
2017-12-16T03:07:43.192Z,252.20
2017-12-16T03:10:15.706Z,341.20
2017-12-16T03:12:48.191Z,325.13
2017-12-16T03:15:20.711Z,323.33
2017-12-16T03:17:53.197Z,191.57
2017-12-16T03:20:25.743Z,165.67
2017-12-16T03:22:58.223Z,253.53
2017-12-16T03:25:30.738Z,295.27
2017-12-16T03:28:03.225Z,113.80
2017-12-16T03:30:37.466Z,176.13
2017-12-16T03:33:09.952Z,132.93
2017-12-16T03:35:42.471Z,211.00
2017-12-16T03:38:14.951Z,163.13
2017-12-16T03:40:47.466Z,125.93
2017-12-16T03:43:19.963Z,151.27
2017-12-16T03:45:52.478Z,97.03
2017-12-16T03:48:24.973Z,183.87
2017-12-16T03:50:57.483Z,143.70
2017-12-16T03:53:29.965Z,103.50
2017-12-16T03:56:02.468Z,160.87
2017-12-16T03:58:34.950Z,108.67
2017-12-16T04:01:10.342Z,172.27
2017-12-16T04:03:42.832Z,110.50
2017-12-16T04:06:15.338Z,135.70
2017-12-16T04:08:47.809Z,137.43
2017-12-16T04:11:20.324Z,148.60
2017-12-16T04:13:52.816Z,95.20
2017-12-16T04:16:25.345Z,160.10
2017-12-16T04:18:57.836Z,116.40
2017-12-16T04:21:30.347Z,130.13
2017-12-16T04:24:02.835Z,116.97
2017-12-16T04:26:35.336Z,163.13
2017-12-16T04:29:10.762Z,101.30
2017-12-16T04:31:43.281Z,139.10
2017-12-16T04:34:15.762Z,118.33
2017-12-16T04:36:48.271Z,83.23
2017-12-16T04:39:20.756Z,142.90
2017-12-16T04:41:53.280Z,124.27
2017-12-16T04:44:25.776Z,105.13
2017-12-16T04:46:58.291Z,112.20
2017-12-16T04:49:30.776Z,141.73
2017-12-16T04:52:03.299Z,82.63
2017-12-16T04:54:37.512Z,87.33
2017-12-16T04:57:10.012Z,95.67
2017-12-16T04:59:42.503Z,137.47
2017-12-16T05:02:15.059Z,101.50
2017-12-16T05:04:47.519Z,122.37
2017-12-16T05:07:20.025Z,101.37
2017-12-16T05:09:52.506Z,92.43
2017-12-16T05:12:25.017Z,146.57
2017-12-16T05:14:57.493Z,72.97
2017-12-16T05:17:29.991Z,137.97
2017-12-16T05:20:02.521Z,131.20
2017-12-16T05:25:13.857Z,97.03
2017-12-16T05:27:46.350Z,81.23
2017-12-16T05:30:18.887Z,96.50
2017-12-16T05:32:51.362Z,73.73
2017-12-16T05:35:23.866Z,83.53
2017-12-16T05:37:56.385Z,96.73
2017-12-16T05:40:28.859Z,78.43
2017-12-16T05:43:01.380Z,124.23
2017-12-16T05:45:33.865Z,125.83
2017-12-16T05:48:08.525Z,144.33
2017-12-16T05:50:41.013Z,113.17
2017-12-16T05:53:13.506Z,110.20
2017-12-16T05:55:46.007Z,88.30
2017-12-16T05:58:18.503Z,81.07
2017-12-16T06:00:51.961Z,71.00
2017-12-16T06:03:24.476Z,88.87
2017-12-16T06:05:56.953Z,92.37
2017-12-16T06:08:29.461Z,96.13
2017-12-16T06:11:01.981Z,71.70
2017-12-16T06:13:34.488Z,70.27
2017-12-16T06:16:06.975Z,78.93
2017-12-16T06:18:39.488Z,69.40
2017-12-16T06:21:11.966Z,63.83
2017-12-16T06:23:44.495Z,77.27
2017-12-16T06:26:16.980Z,67.03
2017-12-16T06:28:49.483Z,72.43
2017-12-16T06:31:22.064Z,69.37
2017-12-16T06:33:54.589Z,62.67
2017-12-16T06:36:27.073Z,67.57
2017-12-16T06:38:59.576Z,70.03
2017-12-16T06:41:32.054Z,58.23
2017-12-16T06:44:04.555Z,59.87
2017-12-16T06:46:37.043Z,66.60
2017-12-16T06:49:09.541Z,62.73
2017-12-16T06:51:42.007Z,76.57
2017-12-16T06:54:14.516Z,103.10
2017-12-16T06:56:46.999Z,68.17
2017-12-16T06:59:19.503Z,72.73
2017-12-16T07:01:51.996Z,67.30
2017-12-16T07:04:24.496Z,62.33
2017-12-16T07:06:56.982Z,61.07
2017-12-16T07:09:29.474Z,66.83
2017-12-16T07:12:01.967Z,75.73
2017-12-16T07:14:34.483Z,61.47
2017-12-16T07:17:07.011Z,95.53
2017-12-16T07:19:39.613Z,69.67
2017-12-16T07:22:12.111Z,67.73
2017-12-16T07:24:44.631Z,64.70
2017-12-16T07:27:17.111Z,78.07
2017-12-16T07:29:49.684Z,71.83
2017-12-16T07:32:22.161Z,69.37
2017-12-16T07:34:54.663Z,76.63
2017-12-16T07:37:27.151Z,85.83
2017-12-16T07:39:59.658Z,99.07
2017-12-16T07:42:32.154Z,86.07
2017-12-16T07:45:04.651Z,77.63
2017-12-16T07:47:37.130Z,63.43
2017-12-16T07:50:09.622Z,88.53
2017-12-16T07:52:42.109Z,91.43
2017-12-16T07:55:14.610Z,90.90
2017-12-16T07:57:47.089Z,76.70
2017-12-16T08:00:19.598Z,71.53
2017-12-16T08:02:52.089Z,64.17
2017-12-16T08:05:24.588Z,61.23
2017-12-16T08:07:57.077Z,51.77
2017-12-16T08:10:29.580Z,55.90
2017-12-16T08:13:02.059Z,47.40
2017-12-16T08:15:34.576Z,55.43
2017-12-16T08:18:07.089Z,55.10
2017-12-16T08:20:39.584Z,49.23
2017-12-16T08:23:12.078Z,38.83
2017-12-16T08:25:44.580Z,45.07
2017-12-16T08:28:17.050Z,40.13
2017-12-16T08:30:49.563Z,36.03
2017-12-16T08:33:22.043Z,49.43
2017-12-16T08:35:54.555Z,39.07
2017-12-16T08:38:27.044Z,40.10
2017-12-16T08:40:59.562Z,44.40
2017-12-16T08:43:32.047Z,38.83
2017-12-16T08:46:04.551Z,28.07
2017-12-16T08:48:37.071Z,33.87
2017-12-16T08:51:09.594Z,34.03
2017-12-16T08:53:42.071Z,34.47
2017-12-16T08:56:14.570Z,37.10
2017-12-16T08:58:47.050Z,34.63
2017-12-16T09:01:19.567Z,37.10
2017-12-16T09:03:52.044Z,40.20
2017-12-16T09:06:24.548Z,40.37
2017-12-16T09:08:57.061Z,44.37
2017-12-16T09:11:29.568Z,43.60
2017-12-16T09:14:02.045Z,47.30
2017-12-16T09:16:34.548Z,37.53
2017-12-16T09:19:09.572Z,38.07
2017-12-16T09:21:42.065Z,36.27
2017-12-16T09:24:14.555Z,40.53
2017-12-16T09:26:47.065Z,40.17
2017-12-16T09:29:19.544Z,44.03
2017-12-16T09:31:52.046Z,48.43
2017-12-16T09:34:24.534Z,51.87
2017-12-16T09:36:57.038Z,46.27
2017-12-16T09:39:29.517Z,49.27
2017-12-16T09:42:02.018Z,52.87
2017-12-16T09:44:34.497Z,41.23
2017-12-16T09:47:09.378Z,42.60
2017-12-16T09:49:41.863Z,47.77
2017-12-16T09:52:14.441Z,44.27
2017-12-16T09:54:46.972Z,38.57
2017-12-16T09:57:19.486Z,37.30
2017-12-16T09:59:51.976Z,34.40
2017-12-16T10:02:24.548Z,31.87
2017-12-16T10:04:57.040Z,33.00
2017-12-16T10:07:29.550Z,34.57
2017-12-16T10:10:02.026Z,33.70
2017-12-16T10:12:34.538Z,33.83
2017-12-16T10:15:09.416Z,35.77
2017-12-16T10:17:41.924Z,34.40
2017-12-16T10:20:14.413Z,32.97
2017-12-16T10:22:46.917Z,30.43
2017-12-16T10:25:19.428Z,26.30
2017-12-16T10:27:51.935Z,30.57
2017-12-16T10:30:24.415Z,32.33
2017-12-16T10:32:56.925Z,29.10
2017-12-16T10:35:29.402Z,34.37
2017-12-16T10:38:01.925Z,25.27
2017-12-16T10:40:34.408Z,23.97
2017-12-16T10:43:09.280Z,25.70
2017-12-16T10:45:41.754Z,31.37
2017-12-16T10:48:14.262Z,28.87
2017-12-16T10:50:46.752Z,30.80
2017-12-16T10:53:19.243Z,26.13
2017-12-16T10:55:51.718Z,21.20
2017-12-16T10:58:24.208Z,23.37
2017-12-16T11:00:56.696Z,25.80
2017-12-16T11:03:29.198Z,19.93
2017-12-16T11:06:01.671Z,18.23
2017-12-16T11:08:34.181Z,16.20
2017-12-16T11:11:06.670Z,17.77
2017-12-16T11:13:39.173Z,26.13
2017-12-16T11:16:11.647Z,17.20
2017-12-16T11:18:44.206Z,18.30
2017-12-16T11:21:16.684Z,12.53
2017-12-16T11:23:49.232Z,15.50
2017-12-16T11:26:21.720Z,11.90
2017-12-16T11:28:54.241Z,14.77
2017-12-16T11:31:26.716Z,15.83
2017-12-16T11:33:59.212Z,10.70
2017-12-16T11:36:31.743Z,12.83
2017-12-16T11:39:04.254Z,14.90
2017-12-16T11:41:38.393Z,11.07
2017-12-16T11:44:10.916Z,13.43
2017-12-16T11:46:43.443Z,14.63
2017-12-16T11:49:15.945Z,11.90
2017-12-16T11:51:48.415Z,10.07
2017-12-16T11:54:20.917Z,11.73
2017-12-16T11:56:53.389Z,11.80
2017-12-16T11:59:25.892Z,13.20
2017-12-16T12:01:58.372Z,13.67
2017-12-16T12:04:30.889Z,13.30
2017-12-16T12:07:03.366Z,12.10
2017-12-16T12:09:35.870Z,12.80
2017-12-16T12:12:11.022Z,14.17
2017-12-16T12:14:43.518Z,13.27
2017-12-16T12:17:16.368Z,14.00
2017-12-16T12:19:48.873Z,14.27
2017-12-16T12:22:21.349Z,14.33
2017-12-16T12:24:53.858Z,11.33
2017-12-16T12:27:26.336Z,13.40
2017-12-16T12:29:58.843Z,10.00
2017-12-16T12:32:31.374Z,8.77
2017-12-16T12:35:03.841Z,9.50
2017-12-16T12:37:36.628Z,10.43
2017-12-16T12:40:09.141Z,10.20
2017-12-16T12:42:41.608Z,9.80
2017-12-16T12:45:14.191Z,11.70
2017-12-16T12:47:46.667Z,12.63
2017-12-16T12:50:19.168Z,10.60
2017-12-16T12:52:51.645Z,11.20
2017-12-16T12:55:24.156Z,14.03
2017-12-16T12:57:56.637Z,8.63
2017-12-16T13:00:29.132Z,12.20
2017-12-16T13:03:01.608Z,11.50
2017-12-16T13:05:34.119Z,15.63
2017-12-16T13:08:08.589Z,12.63
2017-12-16T13:10:41.290Z,13.17
2017-12-16T13:13:13.767Z,15.07
2017-12-16T13:15:46.272Z,14.80
2017-12-16T13:18:18.763Z,13.33
2017-12-16T13:20:51.277Z,13.43
2017-12-16T13:23:23.751Z,12.73
2017-12-16T13:25:56.265Z,11.10
2017-12-16T13:28:28.747Z,16.33
2017-12-16T13:31:01.249Z,11.47
2017-12-16T13:33:33.742Z,13.17
2017-12-16T13:36:06.833Z,11.67
2017-12-16T13:38:39.302Z,9.77
2017-12-16T13:41:11.807Z,11.80
2017-12-16T13:43:44.271Z,9.20
2017-12-16T13:46:16.768Z,6.97
2017-12-16T13:48:49.272Z,9.70
2017-12-16T13:51:21.801Z,10.83
2017-12-16T13:53:54.271Z,7.97
2017-12-16T13:56:26.792Z,8.83
2017-12-16T13:58:59.254Z,13.60
2017-12-16T14:01:31.742Z,9.30
2017-12-16T14:04:04.211Z,11.87
2017-12-16T14:06:36.761Z,10.13
2017-12-16T14:09:09.242Z,14.40
2017-12-16T14:11:41.739Z,9.63
2017-12-16T14:14:14.223Z,9.07
2017-12-16T14:16:47.572Z,8.83
2017-12-16T14:19:20.055Z,8.00
2017-12-16T14:21:52.547Z,8.23
2017-12-16T14:24:25.023Z,6.27
2017-12-16T14:26:57.527Z,6.47
2017-12-16T14:29:30.005Z,10.83
2017-12-16T14:32:02.501Z,9.27
2017-12-16T14:34:34.977Z,9.77
2017-12-16T14:37:07.467Z,6.83
2017-12-16T14:39:39.943Z,10.13
2017-12-16T14:42:12.438Z,8.17
2017-12-16T14:44:45.024Z,7.67
2017-12-16T14:47:17.514Z,8.17
2017-12-16T14:49:49.987Z,10.63
2017-12-16T14:52:22.526Z,8.33
2017-12-16T14:54:55.091Z,10.13
2017-12-16T14:57:27.604Z,8.20
2017-12-16T15:00:00.100Z,7.70
2017-12-16T15:02:32.586Z,6.57
2017-12-16T15:05:05.407Z,6.47
2017-12-16T15:07:39.119Z,7.33
2017-12-16T15:10:11.977Z,6.87
2017-12-16T15:12:44.853Z,7.17
2017-12-16T15:15:18.111Z,7.57
2017-12-16T15:17:50.619Z,10.03
2017-12-16T15:20:23.155Z,6.30
2017-12-16T15:22:55.656Z,7.20
2017-12-16T15:25:28.131Z,11.77
2017-12-16T15:28:00.630Z,9.13
2017-12-16T15:30:33.106Z,12.27
2017-12-16T15:33:05.609Z,11.37
2017-12-16T15:35:40.835Z,7.60
2017-12-16T15:38:13.375Z,7.37
2017-12-16T15:40:45.840Z,7.83
2017-12-16T15:43:18.741Z,8.67
2017-12-16T15:45:51.294Z,6.53
2017-12-16T15:48:23.793Z,7.93
2017-12-16T15:50:56.265Z,7.37
2017-12-16T15:53:30.615Z,8.90
2017-12-16T15:56:03.107Z,8.97
2017-12-16T15:58:35.600Z,5.73
2017-12-16T16:01:10.814Z,5.80
2017-12-16T16:03:43.319Z,4.80
2017-12-16T16:06:15.800Z,4.80
2017-12-16T16:08:48.296Z,4.23
2017-12-16T16:11:20.773Z,6.00
2017-12-16T16:13:53.295Z,5.60
2017-12-16T16:16:25.771Z,5.67
2017-12-16T16:18:58.265Z,5.80
2017-12-16T16:21:30.735Z,5.43
2017-12-16T16:24:03.219Z,5.57
2017-12-16T16:26:35.699Z,6.43
2017-12-16T16:29:11.985Z,11.43
2017-12-16T16:31:44.463Z,7.20
2017-12-16T16:34:16.966Z,5.00
2017-12-16T16:36:49.426Z,6.40
2017-12-16T16:39:21.930Z,13.73
2017-12-16T16:41:54.392Z,6.57
2017-12-16T16:44:26.897Z,9.63
2017-12-16T16:46:59.382Z,10.17
2017-12-16T16:49:31.888Z,16.57
2017-12-16T16:52:04.370Z,12.77
2017-12-16T16:54:38.929Z,11.13
2017-12-16T16:57:11.419Z,12.00
2017-12-16T16:59:43.948Z,9.73
2017-12-16T17:02:16.447Z,10.17
2017-12-16T17:04:48.952Z,9.30
2017-12-16T17:07:21.439Z,11.93
2017-12-16T17:09:53.951Z,7.40
2017-12-16T17:12:27.509Z,8.90
2017-12-16T17:15:00.005Z,11.13
2017-12-16T17:17:32.484Z,8.70
2017-12-16T17:20:05.009Z,7.87
2017-12-16T17:22:37.531Z,7.50
2017-12-16T17:25:10.024Z,7.37
2017-12-16T17:27:42.557Z,8.50
2017-12-16T17:30:15.215Z,8.80
2017-12-16T17:32:47.690Z,7.17
2017-12-16T17:35:20.198Z,10.33
2017-12-16T17:37:52.674Z,8.00
2017-12-16T17:40:25.171Z,7.53
2017-12-16T17:42:57.647Z,9.83
2017-12-16T17:45:30.164Z,9.90
2017-12-16T17:48:02.656Z,7.47
2017-12-16T17:50:35.159Z,7.63
2017-12-16T17:53:09.094Z,7.87
2017-12-16T17:55:41.627Z,7.53
2017-12-16T17:58:14.112Z,10.23
2017-12-16T18:00:46.609Z,9.60
2017-12-16T18:03:19.084Z,7.37
2017-12-16T18:05:51.649Z,10.23
2017-12-16T18:08:24.120Z,8.60
2017-12-16T18:10:56.643Z,7.83
2017-12-16T18:13:29.124Z,11.50
2017-12-16T18:16:01.628Z,8.80
2017-12-16T18:18:34.220Z,7.87
2017-12-16T18:21:08.839Z,7.10
2017-12-16T18:23:41.316Z,8.47
2017-12-16T18:26:14.056Z,7.83
2017-12-16T18:28:46.582Z,6.70
2017-12-16T18:31:19.220Z,7.60
2017-12-16T18:33:51.721Z,7.83
2017-12-16T18:36:24.313Z,6.93
2017-12-16T18:38:56.828Z,6.33
2017-12-16T18:41:29.321Z,6.83
2017-12-16T18:44:01.795Z,6.20
2017-12-16T18:46:34.317Z,6.87
2017-12-16T18:49:08.973Z,6.90
2017-12-16T18:51:41.479Z,7.23
2017-12-16T18:54:13.957Z,9.40
2017-12-16T18:56:46.465Z,6.97
2017-12-16T18:59:18.940Z,7.43
2017-12-16T19:01:51.432Z,8.30
2017-12-16T19:04:23.904Z,8.73
2017-12-16T19:06:56.399Z,7.87
2017-12-16T19:09:28.874Z,7.00
2017-12-16T19:12:01.621Z,6.93
2017-12-16T19:14:34.110Z,9.07
2017-12-16T19:17:08.748Z,8.97
2017-12-16T19:19:41.227Z,7.57
2017-12-16T19:22:13.746Z,6.40
2017-12-16T19:24:46.226Z,8.30
2017-12-16T19:27:18.722Z,7.07
2017-12-16T19:29:51.196Z,7.67
2017-12-16T19:32:23.718Z,7.87
2017-12-16T19:34:56.204Z,5.93
2017-12-16T19:37:28.707Z,6.80
2017-12-16T19:40:01.197Z,6.10
2017-12-16T19:42:33.694Z,6.50
2017-12-16T19:45:09.911Z,8.83
2017-12-16T19:47:42.452Z,7.60
2017-12-16T19:50:14.967Z,8.90
2017-12-16T19:52:47.463Z,7.00
2017-12-16T19:55:19.939Z,7.73
2017-12-16T19:57:52.437Z,8.80
2017-12-16T20:00:24.999Z,8.70
2017-12-16T20:02:57.519Z,6.93
2017-12-16T20:05:30.048Z,6.00
2017-12-16T20:08:02.573Z,6.97
2017-12-16T20:10:36.004Z,6.57
2017-12-16T20:13:10.066Z,7.80
2017-12-16T20:15:42.549Z,8.07
2017-12-16T20:18:15.052Z,6.97
2017-12-16T20:20:47.523Z,6.47
2017-12-16T20:23:20.891Z,6.30
2017-12-16T20:25:53.373Z,6.13
2017-12-16T20:28:25.879Z,7.00
2017-12-16T20:30:58.402Z,6.37
2017-12-16T20:33:30.970Z,5.27
2017-12-16T20:36:03.481Z,5.60
2017-12-16T20:38:35.983Z,7.57
2017-12-16T20:41:10.616Z,6.50
2017-12-16T20:43:43.110Z,6.73
2017-12-16T20:46:15.584Z,5.10
2017-12-16T20:48:48.110Z,5.50
2017-12-16T20:51:20.613Z,5.70
2017-12-16T20:53:53.133Z,5.07
2017-12-16T20:56:25.617Z,5.93
2017-12-16T20:58:58.111Z,7.00
2017-12-16T21:01:30.584Z,5.53
2017-12-16T21:04:03.082Z,5.47
2017-12-16T21:06:35.584Z,5.77
2017-12-16T21:09:08.117Z,5.10
2017-12-16T21:11:40.597Z,5.93
2017-12-16T21:14:13.094Z,5.93
2017-12-16T21:16:45.576Z,6.57
2017-12-16T21:19:18.081Z,5.80
2017-12-16T21:21:50.568Z,4.70
2017-12-16T21:24:23.081Z,4.27
2017-12-16T21:26:55.562Z,4.50
2017-12-16T21:29:28.074Z,3.93
2017-12-16T21:32:00.563Z,3.23
2017-12-16T21:34:33.085Z,4.17
2017-12-16T21:37:05.583Z,3.30
2017-12-16T21:39:40.495Z,2.87
2017-12-16T21:42:12.984Z,4.03
2017-12-16T21:44:45.500Z,4.37
2017-12-16T21:50:21.257Z,2.80
2017-12-16T21:52:53.760Z,3.43
2017-12-16T21:55:26.278Z,3.60
2017-12-16T21:57:58.759Z,3.97
2017-12-16T22:00:31.264Z,3.87
2017-12-16T22:03:03.756Z,4.27
2017-12-16T22:05:36.263Z,5.63
2017-12-16T22:08:08.755Z,5.77
2017-12-16T22:10:41.548Z,6.57
2017-12-16T22:13:14.036Z,6.80
2017-12-16T22:15:46.547Z,6.87
2017-12-16T22:18:19.060Z,7.30
2017-12-16T22:20:51.567Z,8.20
2017-12-16T22:23:24.065Z,7.37
2017-12-16T22:25:56.571Z,7.70
2017-12-16T22:28:29.127Z,7.77
2017-12-16T22:31:01.658Z,6.83
2017-12-16T22:33:34.197Z,7.27
2017-12-16T22:36:06.761Z,7.67
2017-12-16T22:38:39.246Z,8.20
2017-12-16T22:41:11.756Z,8.37
2017-12-16T22:43:44.289Z,7.53
2017-12-16T22:46:16.874Z,8.97
2017-12-16T22:48:49.386Z,8.13
2017-12-16T22:51:21.886Z,8.73
2017-12-16T22:53:54.373Z,9.67
2017-12-16T22:56:26.872Z,10.27
2017-12-16T22:58:59.366Z,10.20
2017-12-16T23:01:31.905Z,10.00
2017-12-16T23:04:04.389Z,10.37
2017-12-16T23:06:36.972Z,10.37
2017-12-16T23:09:09.476Z,12.47
2017-12-16T23:11:42.037Z,14.47
2017-12-16T23:14:14.523Z,10.70
2017-12-16T23:16:47.035Z,12.93
2017-12-16T23:19:19.514Z,10.20
2017-12-16T23:21:52.040Z,10.80
2017-12-16T23:24:24.534Z,9.70
2017-12-16T23:26:57.036Z,11.37
2017-12-16T23:29:29.521Z,10.20
2017-12-16T23:32:02.060Z,10.80
2017-12-16T23:34:34.588Z,13.33
2017-12-16T23:37:07.140Z,10.83
2017-12-16T23:39:39.631Z,11.07
2017-12-16T23:42:12.137Z,9.67
2017-12-16T23:44:44.610Z,9.23
2017-12-16T23:47:17.105Z,8.13
2017-12-16T23:49:49.578Z,7.73
2017-12-16T23:52:22.072Z,7.80
2017-12-16T23:54:54.543Z,8.67
2017-12-16T23:57:27.052Z,6.23
2017-12-16T23:59:59.538Z,6.90
